Time;durP1;ratioP1;P1;durP2;ratioP2;P2;SDS_P1;SDS_P2;PMS_P1;PMS_P2;Temp;Humidity;BMP_temperature;BMP_pressure;BME280_temperature;BME280_humidity;BME280_pressure;Samples;Min_cycle;Max_cycle;Signal;HPM_P1;HPM_P2
2022/12/30 00:02:59;;;;;;;10.38;5.70;;;23.50;45.30;;;;;;6086401;28;80054;-63
2022/12/30 00:06:00;;;;;;;8.52;5.07;;;23.50;45.30;;;;;;6080965;28;81870;-62
2022/12/30 00:09:00;;;;;;;7.57;5.25;;;23.50;45.30;;;;;;6079340;28;80419;-61
2022/12/30 00:33:06;;;;;;;7.45;4.90;;;23.50;45.30;;;;;;6080320;28;80466;-62
2022/12/30 00:35:17;;;;;;;6.72;3.80;;;23.50;45.30;;;;;;6060101;28;80493;-68
2022/12/30 00:38:18;;;;;;;6.55;4.70;;;23.50;45.20;;;;;;6066267;28;81407;-68
2022/12/30 00:44:37;;;;;;;7.10;4.13;;;23.50;45.20;;;;;;6056161;28;80902;-67
2022/12/30 00:47:38;;;;;;;7.22;4.47;;;23.50;45.20;;;;;;6072539;28;81624;-68
2022/12/30 00:57:18;;;;;;;6.90;4.38;;;23.50;45.30;;;;;;6055719;28;80598;-70
2022/12/30 01:00:19;;;;;;;7.03;4.55;;;23.50;45.20;;;;;;6056882;28;81264;-69
2022/12/30 01:03:19;;;;;;;6.75;4.10;;;23.50;45.20;;;;;;6059733;28;80470;-66
2022/12/30 01:06:20;;;;;;;5.75;4.00;;;23.50;45.30;;;;;;6076113;28;81601;-68
2022/12/30 01:09:20;;;;;;;8.35;4.75;;;23.50;45.30;;;;;;6067391;28;80903;-69
2022/12/30 01:12:21;;;;;;;6.18;4.13;;;23.50;45.30;;;;;;6061411;28;81366;-70
2022/12/30 01:15:21;;;;;;;5.53;3.75;;;23.50;45.30;;;;;;6055482;28;81034;-70
2022/12/30 01:18:22;;;;;;;5.80;4.30;;;23.50;45.20;;;;;;6070965;28;83228;-69
2022/12/30 01:21:23;;;;;;;4.88;3.15;;;23.50;45.20;;;;;;6068200;28;80740;-70
2022/12/30 01:24:23;;;;;;;6.13;4.18;;;23.50;45.20;;;;;;6067581;28;82899;-70
2022/12/30 01:27:24;;;;;;;6.60;3.97;;;23.50;45.20;;;;;;6067921;28;82212;-70
2022/12/30 01:30:24;;;;;;;5.78;3.63;;;23.50;45.20;;;;;;6075392;28;81009;-70
2022/12/30 01:33:25;;;;;;;5.63;3.78;;;23.50;45.10;;;;;;6078381;28;80531;-68
2022/12/30 01:36:25;;;;;;;5.38;3.53;;;23.50;45.10;;;;;;6071412;28;81242;-68
2022/12/30 01:39:26;;;;;;;5.57;3.50;;;23.50;45.10;;;;;;6055299;28;80801;-68
2022/12/30 01:42:26;;;;;;;5.25;3.50;;;23.50;45.20;;;;;;6070541;28;83961;-69
2022/12/30 01:45:27;;;;;;;6.18;3.35;;;23.50;45.10;;;;;;6076029;28;80838;-68
2022/12/30 01:48:28;;;;;;;6.13;3.20;;;23.40;45.20;;;;;;6067474;28;80778;-68
2022/12/30 01:51:28;;;;;;;4.40;2.90;;;23.40;45.30;;;;;;6067677;28;81181;-70
2022/12/30 01:54:29;;;;;;;4.57;3.13;;;23.40;45.20;;;;;;6062396;28;80162;-70
2022/12/30 01:57:29;;;;;;;4.55;3.33;;;23.40;45.10;;;;;;6077617;28;81164;-69
2022/12/30 02:00:30;;;;;;;5.57;3.25;;;23.40;45.00;;;;;;6079918;28;80425;-68
2022/12/30 02:03:30;;;;;;;5.18;3.40;;;23.30;44.90;;;;;;6077794;28;80386;-67
2022/12/30 02:06:31;;;;;;;4.47;3.50;;;23.40;44.90;;;;;;6064338;28;80648;-67
2022/12/30 02:09:31;;;;;;;3.00;2.50;;;23.30;44.80;;;;;;6055567;28;80814;-69
2022/12/30 02:12:32;;;;;;;4.75;3.17;;;23.30;44.70;;;;;;6059891;28;80588;-68
2022/12/30 02:15:32;;;;;;;4.72;3.13;;;23.40;44.80;;;;;;6060886;28;80588;-69
2022/12/30 02:18:33;;;;;;;4.90;3.30;;;23.30;44.70;;;;;;6062257;28;81910;-68
2022/12/30 02:21:34;;;;;;;4.03;2.92;;;23.40;44.60;;;;;;6063587;28;80897;-69
2022/12/30 02:24:34;;;;;;;3.42;2.70;;;23.30;44.40;;;;;;6077682;28;81732;-69
2022/12/30 02:27:35;;;;;;;3.97;3.10;;;23.40;44.50;;;;;;6067051;28;81623;-67
2022/12/30 02:30:35;;;;;;;4.00;2.83;;;23.40;44.50;;;;;;6079699;28;80581;-68
2022/12/30 02:33:36;;;;;;;4.25;3.03;;;23.40;44.50;;;;;;6076403;28;80818;-67
2022/12/30 02:36:36;;;;;;;4.45;2.92;;;23.30;44.50;;;;;;6080533;28;82646;-66
2022/12/30 02:39:37;;;;;;;5.20;3.05;;;23.40;44.60;;;;;;6072475;28;80553;-67
2022/12/30 02:45:57;;;;;;;4.70;3.17;;;23.40;44.60;;;;;;6063887;28;84770;-68
2022/12/30 02:48:57;;;;;;;4.10;2.90;;;23.40;44.60;;;;;;6076399;28;80835;-69
2022/12/30 02:52:18;;;;;;;4.90;3.35;;;23.30;44.50;;;;;;6081064;28;82285;-70
2022/12/30 02:55:18;;;;;;;4.03;2.90;;;23.40;44.60;;;;;;6098670;28;84934;-71
2022/12/30 02:58:18;;;;;;;4.03;3.15;;;23.40;44.60;;;;;;6096125;28;81051;-69
2022/12/30 03:04:38;;;;;;;7.28;3.83;;;23.30;44.60;;;;;;6069567;28;82024;-65
2022/12/30 03:07:39;;;;;;;5.38;3.67;;;23.40;44.60;;;;;;6070391;28;80294;-65
2022/12/30 03:13:59;;;;;;;5.97;4.20;;;23.30;44.40;;;;;;6070536;28;82922;-65
2022/12/30 03:16:59;;;;;;;5.68;4.03;;;23.40;44.50;;;;;;6055444;28;80643;-65
2022/12/30 03:20:00;;;;;;;5.57;4.18;;;23.30;44.60;;;;;;6077026;28;85774;-65
2022/12/30 03:29:39;;;;;;;7.95;4.85;;;23.30;44.60;;;;;;6076582;28;80934;-69
2022/12/30 03:32:39;;;;;;;7.90;5.25;;;23.40;44.70;;;;;;6064208;28;80398;-71
2022/12/30 03:35:40;;;;;;;8.45;5.18;;;23.30;44.70;;;;;;6062759;28;80238;-70
2022/12/30 03:38:40;;;;;;;7.35;5.07;;;23.30;44.60;;;;;;6066854;28;80546;-70
2022/12/30 03:41:41;;;;;;;7.80;5.32;;;23.40;44.80;;;;;;6079302;28;80183;-70
2022/12/30 03:44:41;;;;;;;7.43;5.18;;;23.30;44.80;;;;;;6080164;28;81284;-69
2022/12/30 03:47:42;;;;;;;7.60;4.82;;;23.30;44.80;;;;;;6061784;28;80124;-70
2022/12/30 03:50:42;;;;;;;8.07;4.82;;;23.30;44.80;;;;;;6056782;28;81040;-70
2022/12/30 03:53:43;;;;;;;9.38;5.50;;;23.30;44.80;;;;;;6078970;28;81569;-65
2022/12/30 03:56:43;;;;;;;6.80;4.68;;;23.30;44.80;;;;;;6080087;28;80608;-65
2022/12/30 03:59:44;;;;;;;8.43;5.35;;;23.30;44.80;;;;;;6104761;28;83266;-62
2022/12/30 04:02:44;;;;;;;7.80;5.13;;;23.30;44.80;;;;;;6112547;28;80375;-63
2022/12/30 04:05:45;;;;;;;8.50;5.13;;;23.30;45.20;;;;;;6105479;28;80226;-62
2022/12/30 04:08:46;;;;;;;7.07;5.47;;;23.30;45.00;;;;;;6102770;28;80574;-63
2022/12/30 04:11:46;;;;;;;7.28;5.00;;;23.30;45.00;;;;;;6103623;28;81073;-63
2022/12/30 04:14:47;;;;;;;7.18;4.97;;;23.30;45.10;;;;;;6103448;28;81190;-64
2022/12/30 04:17:47;;;;;;;7.25;5.00;;;23.40;45.10;;;;;;6096161;28;82029;-65
2022/12/30 04:20:48;;;;;;;7.93;5.22;;;23.30;44.40;;;;;;6102439;28;81422;-64
2022/12/30 04:23:48;;;;;;;6.47;5.05;;;23.40;44.60;;;;;;6091027;28;81172;-65
2022/12/30 04:26:49;;;;;;;10.15;5.80;;;23.40;44.50;;;;;;6092025;28;81264;-63
2022/12/30 04:29:49;;;;;;;6.70;4.47;;;23.50;44.20;;;;;;6096893;28;80994;-67
2022/12/30 04:32:50;;;;;;;7.45;4.80;;;23.50;44.10;;;;;;6080185;28;80739;-67
2022/12/30 04:35:50;;;;;;;6.70;4.63;;;23.60;44.00;;;;;;6081363;28;81016;-67
2022/12/30 04:38:51;;;;;;;8.35;4.32;;;23.60;43.90;;;;;;6091981;28;80500;-69
2022/12/30 04:41:52;;;;;;;5.53;3.95;;;23.60;43.90;;;;;;6084528;28;80450;-67
2022/12/30 04:44:52;;;;;;;7.00;4.05;;;23.70;44.00;;;;;;6081102;28;80534;-67
2022/12/30 04:47:53;;;;;;;7.97;4.32;;;23.70;43.90;;;;;;6085902;28;82770;-67
2022/12/30 04:50:53;;;;;;;5.57;3.90;;;23.70;43.90;;;;;;6107124;28;80759;-71
2022/12/30 04:53:54;;;;;;;6.53;4.22;;;23.70;43.80;;;;;;6107901;28;80784;-70
2022/12/30 04:56:54;;;;;;;5.20;3.67;;;23.70;43.80;;;;;;6113713;28;83898;-71
2022/12/30 04:59:55;;;;;;;5.53;3.70;;;23.80;44.00;;;;;;6099584;28;80768;-72
2022/12/30 05:02:55;;;;;;;5.97;4.07;;;23.80;44.10;;;;;;6080469;28;80509;-71
2022/12/30 05:05:56;;;;;;;6.60;4.05;;;23.80;44.30;;;;;;6078614;28;82518;-66
2022/12/30 05:08:56;;;;;;;5.05;3.47;;;23.80;44.60;;;;;;6099562;28;80528;-66
2022/12/30 05:11:57;;;;;;;5.78;3.22;;;23.80;44.70;;;;;;6098513;28;80645;-64
2022/12/30 05:14:57;;;;;;;9.32;3.65;;;23.80;44.90;;;;;;6099901;28;80971;-65
2022/12/30 05:17:58;;;;;;;4.57;3.67;;;23.80;44.80;;;;;;6096297;28;81469;-64
2022/12/30 05:20:58;;;;;;;5.65;3.50;;;23.80;44.80;;;;;;6091623;28;80554;-65
2022/12/30 05:27:18;;;;;;;5.75;3.17;;;23.90;44.80;;;;;;6090585;28;80902;-62
2022/12/30 05:30:19;;;;;;;5.57;3.90;;;23.90;44.80;;;;;;6084512;28;82201;-62
2022/12/30 05:33:19;;;;;;;8.40;3.40;;;23.90;45.00;;;;;;6081548;28;81045;-62
2022/12/30 05:36:20;;;;;;;5.68;3.55;;;23.90;45.30;;;;;;6074603;28;81400;-64
2022/12/30 05:39:20;;;;;;;8.32;3.78;;;24.00;45.50;;;;;;6081747;28;83176;-65
2022/12/30 05:42:21;;;;;;;6.65;3.17;;;24.00;45.50;;;;;;6091946;28;82028;-68
2022/12/30 05:45:22;;;;;;;5.75;3.17;;;23.90;45.60;;;;;;6068726;28;85403;-67
2022/12/30 05:48:22;;;;;;;7.38;3.72;;;24.00;45.40;;;;;;6078146;28;81597;-67
2022/12/30 05:51:22;;;;;;;7.28;3.13;;;24.00;45.90;;;;;;6094300;28;80922;-68
2022/12/30 05:54:23;;;;;;;4.13;3.25;;;24.00;45.60;;;;;;6092655;28;81139;-67
2022/12/30 05:57:24;;;;;;;8.10;4.00;;;23.90;45.50;;;;;;6088512;28;80744;-69
2022/12/30 06:00:24;;;;;;;5.78;3.70;;;23.90;45.20;;;;;;6100021;28;80121;-68
2022/12/30 06:03:25;;;;;;;8.80;3.85;;;23.90;45.30;;;;;;6094732;28;80925;-71
2022/12/30 06:06:25;;;;;;;7.97;4.50;;;24.00;45.30;;;;;;6097462;28;80461;-67
2022/12/30 06:09:26;;;;;;;8.30;4.72;;;23.90;45.40;;;;;;6096819;28;80540;-66
2022/12/30 06:12:26;;;;;;;6.80;4.43;;;23.90;45.20;;;;;;6087368;28;86037;-66
2022/12/30 06:15:27;;;;;;;10.85;5.10;;;23.90;45.20;;;;;;6077134;28;85633;-67
2022/12/30 06:18:27;;;;;;;11.02;5.50;;;23.90;45.40;;;;;;6083161;28;81235;-61
2022/12/30 06:21:28;;;;;;;10.63;6.53;;;23.90;44.90;;;;;;6086039;28;81167;-61
2022/12/30 06:24:28;;;;;;;13.75;8.00;;;23.90;45.50;;;;;;6056757;28;81953;-65
2022/12/30 06:27:29;;;;;;;17.73;10.82;;;23.80;45.50;;;;;;6053695;28;80732;-60
2022/12/30 06:30:29;;;;;;;19.63;10.15;;;23.90;46.10;;;;;;6048173;28;83097;-61
2022/12/30 06:33:30;;;;;;;17.67;10.68;;;23.90;46.70;;;;;;6056663;28;84983;-61
2022/12/30 06:36:30;;;;;;;22.60;12.50;;;23.80;46.30;;;;;;6062809;28;83459;-61
2022/12/30 06:39:31;;;;;;;21.83;13.13;;;23.80;46.70;;;;;;6044773;28;82920;-60
2022/12/30 06:42:31;;;;;;;25.27;13.80;;;23.80;46.70;;;;;;6071391;28;85274;-62
2022/12/30 06:45:32;;;;;;;25.73;14.90;;;23.80;47.40;;;;;;6061721;28;84487;-63
2022/12/30 06:48:33;;;;;;;22.70;13.95;;;23.80;47.40;;;;;;6053463;28;83567;-62
2022/12/30 06:51:33;;;;;;;23.20;14.43;;;23.80;48.00;;;;;;6071667;28;83175;-61
2022/12/30 06:54:34;;;;;;;22.80;13.93;;;23.80;48.00;;;;;;6078041;28;83656;-62
2022/12/30 06:57:34;;;;;;;20.63;13.20;;;23.70;47.70;;;;;;6090902;28;86634;-63
2022/12/30 07:00:35;;;;;;;23.20;13.40;;;23.80;47.80;;;;;;6058959;28;84198;-61
2022/12/30 07:03:35;;;;;;;20.95;12.70;;;23.80;47.70;;;;;;6053710;28;84247;-63
2022/12/30 07:06:36;;;;;;;25.38;12.82;;;23.80;47.50;;;;;;6044700;28;83667;-60
2022/12/30 07:09:37;;;;;;;21.08;12.48;;;23.80;47.70;;;;;;5960871;28;85211;-64
2022/12/30 07:12:37;;;;;;;24.52;12.75;;;23.80;47.50;;;;;;6056754;28;83418;-64
2022/12/30 07:15:38;;;;;;;21.23;12.75;;;23.80;47.40;;;;;;6051091;28;83564;-64
2022/12/30 07:18:38;;;;;;;21.50;11.90;;;23.80;47.30;;;;;;6051480;28;83605;-65
2022/12/30 07:21:39;;;;;;;22.05;12.43;;;23.80;47.10;;;;;;6065732;28;85295;-65
2022/12/30 07:24:39;;;;;;;18.05;11.07;;;23.80;46.90;;;;;;6057890;28;83982;-62
2022/12/30 07:27:40;;;;;;;19.27;10.73;;;23.70;46.80;;;;;;6055555;28;83465;-64
2022/12/30 07:30:40;;;;;;;17.83;11.05;;;23.70;46.60;;;;;;6044351;28;83609;-62
2022/12/30 07:33:41;;;;;;;19.40;10.77;;;23.70;46.70;;;;;;6052134;28;85256;-60
2022/12/30 07:36:42;;;;;;;16.85;8.75;;;23.70;46.60;;;;;;6063243;28;83355;-64
2022/12/30 07:39:42;;;;;;;14.25;8.00;;;23.60;46.70;;;;;;6077063;28;83230;-60
2022/12/30 07:42:43;;;;;;;13.48;7.70;;;23.60;47.10;;;;;;6069010;28;83574;-59
2022/12/30 07:45:43;;;;;;;9.30;6.78;;;23.50;47.60;;;;;;6073386;28;80525;-59
2022/12/30 07:48:44;;;;;;;12.13;7.78;;;23.60;47.70;;;;;;6068180;28;85353;-59
2022/12/30 07:51:44;;;;;;;12.60;7.20;;;23.60;47.80;;;;;;6094982;28;80290;-73
2022/12/30 07:54:45;;;;;;;13.07;7.78;;;23.60;48.00;;;;;;6100798;28;80586;-66
2022/12/30 07:57:45;;;;;;;16.70;8.80;;;23.60;48.10;;;;;;6090891;28;80427;-64
2022/12/30 08:00:46;;;;;;;14.00;7.35;;;23.50;48.40;;;;;;6034866;28;82743;-71
2022/12/30 08:03:46;;;;;;;10.45;6.60;;;23.60;48.50;;;;;;6088244;28;80523;-70
2022/12/30 08:06:47;;;;;;;12.05;6.72;;;23.60;48.70;;;;;;6094853;28;81478;-67
2022/12/30 08:09:47;;;;;;;10.70;6.03;;;23.60;48.60;;;;;;6096589;28;81267;-65
2022/12/30 08:12:48;;;;;;;11.30;6.60;;;23.50;48.40;;;;;;6075416;28;80920;-68
2022/12/30 08:15:48;;;;;;;12.55;7.18;;;23.60;48.20;;;;;;6075992;28;87497;-76
2022/12/30 08:18:49;;;;;;;13.50;7.28;;;23.60;48.10;;;;;;6091200;28;85958;-68
2022/12/30 08:21:49;;;;;;;14.32;7.60;;;23.60;48.10;;;;;;6080833;28;81786;-70
2022/12/30 08:24:50;;;;;;;12.18;6.88;;;23.60;48.00;;;;;;6066969;28;84173;-70
2022/12/30 08:27:50;;;;;;;12.00;7.07;;;23.60;48.10;;;;;;6076969;28;81269;-71
2022/12/30 08:30:51;;;;;;;12.23;7.55;;;23.60;48.00;;;;;;6075386;28;80933;-68
2022/12/30 08:33:51;;;;;;;14.55;6.78;;;23.60;48.60;;;;;;6076933;28;80756;-70
2022/12/30 08:36:52;;;;;;;21.92;8.13;;;23.60;48.00;;;;;;6083361;28;81500;-71
2022/12/30 08:39:52;;;;;;;14.73;7.38;;;23.60;48.30;;;;;;6067010;28;81078;-72
2022/12/30 08:42:53;;;;;;;12.55;7.30;;;23.60;48.30;;;;;;6066029;28;82942;-69
2022/12/30 08:45:53;;;;;;;15.40;7.85;;;23.60;47.80;;;;;;6064112;28;80962;-56
2022/12/30 08:48:54;;;;;;;15.30;7.90;;;23.60;47.80;;;;;;6065244;28;82464;-73
2022/12/30 08:51:54;;;;;;;14.05;7.53;;;23.60;47.70;;;;;;6055050;28;82250;-71
2022/12/30 08:54:55;;;;;;;11.95;7.32;;;23.60;47.90;;;;;;6083779;28;83510;-70
2022/12/30 08:57:55;;;;;;;12.18;7.93;;;23.60;47.80;;;;;;6080577;28;83610;-72
2022/12/30 09:00:56;;;;;;;12.13;7.63;;;23.60;47.80;;;;;;6076614;28;81613;-70
2022/12/30 09:03:56;;;;;;;16.20;7.78;;;23.50;47.80;;;;;;6078771;28;80859;-65
2022/12/30 09:06:57;;;;;;;14.70;7.00;;;23.50;47.80;;;;;;6092075;28;81717;-64
2022/12/30 09:09:58;;;;;;;14.27;6.80;;;23.50;47.80;;;;;;6073708;28;81193;-63
2022/12/30 09:12:58;;;;;;;16.15;6.68;;;23.60;48.60;;;;;;6074379;28;80285;-65
2022/12/30 09:15:59;;;;;;;11.07;6.13;;;23.50;48.60;;;;;;6072689;28;86326;-65
2022/12/30 09:18:59;;;;;;;9.60;6.10;;;23.50;49.10;;;;;;6081857;28;81190;-62
2022/12/30 09:22:00;;;;;;;11.38;5.88;;;23.50;49.80;;;;;;6087704;28;81734;-64
2022/12/30 09:25:00;;;;;;;10.27;5.97;;;23.50;50.10;;;;;;6088132;28;81647;-64
2022/12/30 09:28:01;;;;;;;11.40;6.18;;;23.50;49.60;;;;;;6092055;28;81300;-64
2022/12/30 09:31:01;;;;;;;9.10;6.38;;;23.50;49.00;;;;;;6085366;28;81049;-65
2022/12/30 09:34:04;;;;;;;9.45;6.25;;;23.50;48.80;;;;;;6081570;28;80586;-64
2022/12/30 09:37:04;;;;;;;11.05;7.03;;;23.50;48.60;;;;;;6080083;28;83746;-65
2022/12/30 09:40:05;;;;;;;12.88;6.93;;;23.50;48.90;;;;;;6075832;28;81569;-61
2022/12/30 09:43:15;;;;;;;12.50;7.97;;;23.50;48.90;;;;;;6081513;28;81490;-63
2022/12/30 09:46:15;;;;;;;12.73;6.82;;;23.50;48.90;;;;;;6083354;28;81699;-63
2022/12/30 09:49:16;;;;;;;11.82;7.80;;;23.50;48.70;;;;;;6090028;28;81674;-64
2022/12/30 09:52:16;;;;;;;13.45;7.15;;;23.50;49.00;;;;;;6090986;28;83978;-62
2022/12/30 09:55:17;;;;;;;11.43;7.35;;;23.50;48.60;;;;;;6095654;28;80775;-64
2022/12/30 09:58:17;;;;;;;12.15;7.28;;;23.50;48.50;;;;;;6087156;28;81626;-69
2022/12/30 10:01:18;;;;;;;14.00;7.45;;;23.50;48.90;;;;;;6064474;28;81343;-61
2022/12/30 10:04:18;;;;;;;12.77;7.65;;;23.60;48.90;;;;;;6047266;28;80699;-71
2022/12/30 10:07:19;;;;;;;15.07;7.20;;;23.60;49.00;;;;;;6058380;28;80898;-62
2022/12/30 10:10:19;;;;;;;14.45;8.18;;;23.50;48.80;;;;;;6063408;28;80634;-61
2022/12/30 10:13:20;;;;;;;16.17;8.43;;;23.50;48.70;;;;;;6080223;28;80433;-60
2022/12/30 10:16:20;;;;;;;14.07;7.65;;;23.50;49.20;;;;;;6102387;28;80862;-62
2022/12/30 10:19:21;;;;;;;14.15;7.85;;;23.50;49.40;;;;;;6083341;28;81207;-63
2022/12/30 10:22:22;;;;;;;12.75;6.70;;;23.50;49.60;;;;;;6089548;28;81411;-71
2022/12/30 10:25:22;;;;;;;18.92;8.18;;;23.60;49.80;;;;;;6075066;28;80765;-68
2022/12/30 10:28:23;;;;;;;20.65;7.88;;;23.60;49.40;;;;;;6090209;28;81917;-67
2022/12/30 10:31:23;;;;;;;35.40;9.63;;;23.60;49.30;;;;;;6099997;28;85599;-65
2022/12/30 10:34:24;;;;;;;20.10;8.20;;;23.60;49.10;;;;;;6093828;28;80461;-69
2022/12/30 10:37:24;;;;;;;27.10;9.75;;;23.60;49.30;;;;;;6097917;28;81159;-60
2022/12/30 10:40:25;;;;;;;25.77;8.38;;;23.70;51.70;;;;;;6085342;28;80536;-58
2022/12/30 10:43:25;;;;;;;25.85;8.38;;;23.80;51.00;;;;;;6101476;28;81495;-62
2022/12/30 10:46:26;;;;;;;22.65;8.70;;;23.80;51.00;;;;;;6085836;28;87019;-67
2022/12/30 10:49:26;;;;;;;21.02;10.45;;;23.80;50.60;;;;;;6094473;28;81041;-67
2022/12/30 10:52:27;;;;;;;21.85;11.88;;;23.80;48.30;;;;;;6088144;28;82811;-67
2022/12/30 10:55:28;;;;;;;30.25;12.20;;;23.60;45.80;;;;;;6092112;28;85962;-67
2022/12/30 10:58:28;;;;;;;25.95;12.00;;;23.60;45.00;;;;;;6090915;28;83337;-68
2022/12/30 11:01:29;;;;;;;22.25;12.93;;;23.50;43.70;;;;;;6086483;28;83014;-67
2022/12/30 11:04:29;;;;;;;23.20;14.25;;;23.40;43.60;;;;;;6098488;28;83721;-66
2022/12/30 11:07:30;;;;;;;31.45;14.15;;;23.20;43.50;;;;;;6090007;28;84981;-69
2022/12/30 11:10:30;;;;;;;30.65;13.45;;;23.10;43.50;;;;;;6099325;28;84080;-68
2022/12/30 11:16:50;;;;;;;25.60;12.68;;;22.90;43.60;;;;;;6085048;28;83191;-65
2022/12/30 11:19:51;;;;;;;24.30;13.95;;;22.80;42.90;;;;;;6083799;28;87719;-62
2022/12/30 11:22:51;;;;;;;21.98;13.18;;;22.60;42.50;;;;;;6082943;28;84115;-62
2022/12/30 11:25:52;;;;;;;20.00;12.30;;;22.50;42.70;;;;;;6063743;28;83751;-62
2022/12/30 11:28:52;;;;;;;28.48;16.98;;;22.50;42.90;;;;;;6071719;28;88763;-62
2022/12/30 11:31:53;;;;;;;23.05;14.93;;;22.40;43.00;;;;;;6065713;28;84021;-64
2022/12/30 11:34:53;;;;;;;21.83;13.57;;;22.30;43.10;;;;;;6068316;28;89210;-69
2022/12/30 11:37:54;;;;;;;22.02;13.23;;;22.20;43.10;;;;;;6045149;28;87284;-67
2022/12/30 11:40:54;;;;;;;25.35;12.98;;;22.20;43.40;;;;;;6047112;28;88314;-65
2022/12/30 11:43:55;;;;;;;32.22;15.68;;;22.10;43.80;;;;;;6054672;28;83446;-67
2022/12/30 11:46:55;;;;;;;30.95;17.13;;;22.10;44.20;;;;;;6075841;28;83414;-67
2022/12/30 11:49:57;;;;;;;40.13;17.30;;;22.00;44.70;;;;;;6078433;28;84022;-61
2022/12/30 11:52:57;;;;;;;41.10;18.45;;;21.90;44.50;;;;;;6048520;28;83314;-61
2022/12/30 11:55:58;;;;;;;45.75;19.00;;;21.90;44.60;;;;;;6047356;28;83569;-61
2022/12/30 11:58:58;;;;;;;54.95;20.00;;;21.80;44.90;;;;;;6060795;28;83642;-62
2022/12/30 12:01:59;;;;;;;48.85;20.52;;;21.70;44.90;;;;;;6055634;28;85862;-61
2022/12/30 12:04:59;;;;;;;65.15;22.40;;;21.90;46.50;;;;;;6081979;28;83090;-62
2022/12/30 12:08:00;;;;;;;64.75;23.60;;;22.10;49.30;;;;;;6062137;28;83126;-62
2022/12/30 12:11:00;;;;;;;79.50;22.92;;;22.20;49.10;;;;;;6066916;28;83572;-61
2022/12/30 12:14:01;;;;;;;74.25;24.50;;;22.40;50.00;;;;;;6055614;28;83688;-61
2022/12/30 12:17:02;;;;;;;70.28;25.27;;;22.50;50.50;;;;;;6073556;28;83638;-63
2022/12/30 12:20:03;;;;;;;71.60;23.75;;;22.60;51.30;;;;;;6069217;28;83191;-60
2022/12/30 12:23:03;;;;;;;68.50;24.95;;;22.70;51.40;;;;;;6054893;28;83493;-60
2022/12/30 12:26:04;;;;;;;72.40;25.77;;;22.70;50.80;;;;;;6071801;28;90282;-69
2022/12/30 12:29:04;;;;;;;76.53;26.65;;;22.80;50.70;;;;;;6076556;28;84662;-75
2022/12/30 12:32:05;;;;;;;82.88;29.27;;;22.90;51.80;;;;;;6059477;28;84707;-69
2022/12/30 12:35:06;;;;;;;93.53;30.60;;;22.90;52.40;;;;;;6072263;28;83859;-67
2022/12/30 12:38:06;;;;;;;81.38;28.70;;;23.00;53.20;;;;;;6063853;28;83461;-70
2022/12/30 12:41:07;;;;;;;77.35;26.63;;;23.00;52.80;;;;;;6073740;28;83665;-70
2022/12/30 12:44:08;;;;;;;71.45;25.13;;;23.00;52.70;;;;;;6072861;28;83516;-68
2022/12/30 12:47:08;;;;;;;64.70;23.70;;;23.10;52.30;;;;;;6065634;28;83288;-67
2022/12/30 12:50:09;;;;;;;57.65;23.00;;;23.10;52.00;;;;;;6073722;28;86476;-67
2022/12/30 12:53:09;;;;;;;56.80;21.85;;;23.10;51.00;;;;;;6052750;28;88144;-63
2022/12/30 12:56:10;;;;;;;51.40;20.58;;;23.10;51.40;;;;;;6052740;28;83423;-64
2022/12/30 12:59:10;;;;;;;45.58;18.95;;;23.20;50.90;;;;;;6052604;28;84385;-77
2022/12/30 13:02:11;;;;;;;41.70;17.00;;;23.20;50.50;;;;;;6048279;28;84088;-67
2022/12/30 13:05:11;;;;;;;38.80;16.33;;;23.20;50.90;;;;;;6053760;28;86169;-65
2022/12/30 13:08:12;;;;;;;32.50;15.73;;;23.20;50.90;;;;;;6055121;28;84353;-68
2022/12/30 13:11:12;;;;;;;36.60;15.32;;;23.20;50.10;;;;;;6055255;28;83645;-65
2022/12/30 13:14:13;;;;;;;30.73;15.25;;;23.20;49.50;;;;;;6049904;28;82946;-67
2022/12/30 13:17:14;;;;;;;27.33;13.10;;;23.30;49.50;;;;;;6058082;28;83969;-64
2022/12/30 13:20:14;;;;;;;24.60;12.40;;;23.40;49.30;;;;;;6070732;28;84717;-60
2022/12/30 13:23:15;;;;;;;29.23;12.10;;;23.50;49.00;;;;;;6069450;28;83673;-75
2022/12/30 13:26:16;;;;;;;28.02;13.00;;;23.50;48.50;;;;;;6093448;28;83615;-60
2022/12/30 13:29:16;;;;;;;22.95;12.18;;;23.50;48.00;;;;;;6072264;28;83680;-62
2022/12/30 13:32:17;;;;;;;20.67;12.00;;;23.60;47.90;;;;;;6066966;28;85418;-60
2022/12/30 13:35:17;;;;;;;25.42;11.48;;;23.60;47.80;;;;;;6071664;28;83625;-62
2022/12/30 13:38:18;;;;;;;20.77;12.00;;;23.60;47.60;;;;;;6065512;28;83572;-62
2022/12/30 13:41:18;;;;;;;24.23;12.52;;;23.70;47.30;;;;;;6064884;28;83521;-67
2022/12/30 13:44:19;;;;;;;21.80;12.65;;;23.70;47.20;;;;;;6060106;28;84123;-65
2022/12/30 13:47:19;;;;;;;19.00;11.70;;;23.80;46.70;;;;;;6059578;28;84030;-66
2022/12/30 13:50:20;;;;;;;19.70;10.98;;;23.90;46.30;;;;;;6062385;28;83704;-66
2022/12/30 13:53:21;;;;;;;19.33;11.25;;;24.00;46.30;;;;;;6072584;28;83493;-64
2022/12/30 13:56:21;;;;;;;20.42;11.50;;;24.20;45.50;;;;;;6071751;28;83823;-70
2022/12/30 13:59:22;;;;;;;20.50;11.63;;;24.40;45.40;;;;;;6072478;28;85896;-61
2022/12/30 14:02:23;;;;;;;20.25;12.75;;;24.50;44.80;;;;;;6063321;28;83499;-61
2022/12/30 14:05:24;;;;;;;18.35;11.27;;;24.60;44.70;;;;;;6056163;28;83858;-59
2022/12/30 14:08:24;;;;;;;18.05;11.40;;;24.60;44.40;;;;;;6054444;28;84464;-59
2022/12/30 14:11:25;;;;;;;19.75;11.48;;;24.60;44.40;;;;;;6058242;28;84058;-60
2022/12/30 14:14:25;;;;;;;29.63;14.00;;;24.60;44.50;;;;;;6070432;28;83694;-59
2022/12/30 14:17:26;;;;;;;20.67;11.55;;;24.60;44.20;;;;;;6054284;28;83551;-58
2022/12/30 14:20:26;;;;;;;24.27;12.30;;;24.70;44.00;;;;;;6042424;28;84998;-59
2022/12/30 14:23:27;;;;;;;18.30;10.93;;;24.70;43.90;;;;;;6038737;28;88047;-60
2022/12/30 14:26:28;;;;;;;24.65;13.20;;;24.70;44.10;;;;;;6050487;28;84932;-60
2022/12/30 14:29:29;;;;;;;22.85;12.25;;;24.70;44.00;;;;;;6066990;28;86355;-60
2022/12/30 14:32:29;;;;;;;19.98;12.48;;;24.60;44.20;;;;;;6058323;28;88486;-60
2022/12/30 14:35:30;;;;;;;20.30;12.25;;;24.50;44.40;;;;;;6051893;28;88150;-64
2022/12/30 14:38:30;;;;;;;21.20;12.18;;;24.50;44.60;;;;;;6060613;28;84657;-64
2022/12/30 14:41:31;;;;;;;21.27;12.55;;;24.40;44.80;;;;;;6064283;28;83835;-63
2022/12/30 14:44:31;;;;;;;19.48;11.45;;;24.30;44.70;;;;;;6050097;28;84035;-63
2022/12/30 14:47:32;;;;;;;22.30;12.65;;;24.30;45.10;;;;;;6064230;28;87645;-62
2022/12/30 14:50:32;;;;;;;23.33;12.48;;;24.20;45.00;;;;;;6051716;28;83597;-63
2022/12/30 14:53:33;;;;;;;21.80;12.38;;;24.20;45.20;;;;;;6069672;28;83206;-63
2022/12/30 14:56:33;;;;;;;21.13;11.98;;;24.10;45.10;;;;;;6071421;28;83929;-67
2022/12/30 14:59:34;;;;;;;20.02;11.30;;;24.10;45.70;;;;;;6069522;28;83634;-61
2022/12/30 15:02:35;;;;;;;20.58;11.82;;;24.00;46.10;;;;;;6069046;28;83204;-61
2022/12/30 15:05:37;;;;;;;23.88;11.95;;;24.00;45.90;;;;;;6065335;28;88200;-62
2022/12/30 15:08:37;;;;;;;18.80;11.13;;;23.90;46.20;;;;;;6072841;28;84041;-64
2022/12/30 15:11:38;;;;;;;18.98;10.52;;;23.90;46.40;;;;;;6065664;28;87880;-64
2022/12/30 15:14:38;;;;;;;17.65;11.27;;;23.80;46.70;;;;;;6059766;28;83844;-65
2022/12/30 15:17:39;;;;;;;16.65;10.55;;;23.80;46.50;;;;;;6064475;28;83071;-65
2022/12/30 15:20:39;;;;;;;16.52;10.10;;;23.80;46.40;;;;;;6069216;28;84354;-64
2022/12/30 15:23:40;;;;;;;16.75;10.32;;;23.80;46.20;;;;;;6058370;28;83146;-64
2022/12/30 15:26:40;;;;;;;18.63;9.95;;;23.80;46.60;;;;;;6054826;28;84127;-65
2022/12/30 15:29:41;;;;;;;17.20;9.98;;;23.80;46.60;;;;;;6049458;28;83546;-66
2022/12/30 15:32:42;;;;;;;18.98;9.52;;;23.80;47.00;;;;;;6046019;28;88478;-66
2022/12/30 15:35:42;;;;;;;14.90;9.68;;;23.80;46.90;;;;;;6060060;28;83465;-61
2022/12/30 15:38:43;;;;;;;40.55;15.13;;;23.80;47.20;;;;;;6050344;28;81829;-66
2022/12/30 15:41:43;;;;;;;108.60;57.60;;;23.80;48.10;;;;;;6061914;28;84439;-64
2022/12/30 15:44:44;;;;;;;81.00;46.33;;;23.80;49.20;;;;;;6063968;28;85135;-63
2022/12/30 15:47:44;;;;;;;86.53;50.80;;;23.80;49.20;;;;;;6044232;28;84072;-63
2022/12/30 15:50:45;;;;;;;79.57;42.38;;;23.80;49.30;;;;;;6041491;28;83392;-62
2022/12/30 15:53:45;;;;;;;81.28;41.13;;;23.80;49.10;;;;;;6040081;28;83807;-63
2022/12/30 15:56:46;;;;;;;59.92;36.13;;;23.80;49.20;;;;;;6047683;28;85330;-63
2022/12/30 15:59:46;;;;;;;63.00;35.90;;;23.80;49.20;;;;;;6040877;28;83760;-62
2022/12/30 16:02:48;;;;;;;62.95;35.28;;;23.80;49.70;;;;;;6038547;28;84743;-62
2022/12/30 16:05:50;;;;;;;57.75;32.00;;;23.70;49.10;;;;;;6043580;28;88402;-60
2022/12/30 16:08:51;;;;;;;47.63;31.15;;;23.70;48.90;;;;;;6047110;28;88398;-60
2022/12/30 16:11:52;;;;;;;57.40;30.73;;;23.70;49.00;;;;;;6053710;28;83152;-61
2022/12/30 16:14:52;;;;;;;57.38;30.85;;;23.80;48.90;;;;;;6053799;28;83739;-64
2022/12/30 16:17:53;;;;;;;42.05;27.95;;;23.70;48.60;;;;;;6068068;28;87493;-62
2022/12/30 16:20:54;;;;;;;53.08;32.00;;;23.70;48.60;;;;;;6056415;28;85036;-62